Weather History for Bentonville, AR

Change the Weather History Date:

Friday, March 8, 2013

  Actual Average Record
Temperature  
Mean Temperature 52 °F -  
Max Temperature 62 °F 58 °F 77 °F (1992)
Min Temperature 42 °F 32 °F 7 °F (1989)
Degree Days  
Heating Degree Days 13    
Growing Degree Days 2 (Base 50)    
Moisture  
Dew Point 32 °F    
Average Humidity 46    
Maximum Humidity 61    
Minimum Humidity 34    
Precipitation  
Precipitation 0.00 in - - ()
Sea Level Pressure  
Sea Level Pressure 30.15 in    
Wind  
Wind Speed 10 mph (SE)    
Max Wind Speed 15 mph    
Max Gust Speed 21 mph    
Visibility 10 miles    
Events      
Averages and records for this station are not official NWS values.
T = Trace of Precipitation, MM = Missing Value Source: NWS Daily Summary

Daily Weather History Graph

Daily Weather History Graph

Search for Another Location

Airport:

Trip Planner

Search our weather history database for the weather conditions in past years. The results will help you decide how hot, cold, wet, or windy it might be!

Date:

Astronomy

Mar. 08, 2013 Rise Set
Actual Time 6:37 AM CST 6:18 PM CST
Civil Twilight 6:11 AM CST 6:44 PM CST
Nautical Twilight 5:41 AM CST 7:13 PM CST
Astronomical Twilight 5:11 AM CST 7:43 PM CST
Moon 4:17 AM CST (3/8) 3:18 PM CST (3/8)
Length of Visible Light 12h 32m
Length of Day
11h 41m
Waning Crescent, 11% of the Moon is Illuminated
Mar 8
Waning Crescent
Mar 11
New
Mar 19
First Quarter
Mar 27
Full
Apr 2
Last Quarter

Hourly Weather History & Observations

Time (CST) Temp. Windchill Dew Point Humidity Pressure Visibility Wind Dir Wind Speed Gust Speed Precip Events Conditions
12:15 AM 44.6 °F 40.2 °F 28.4 °F 53% 30.18 in 10.0 mi ESE 8.1 mph - N/A   Clear
12:35 AM 44.6 °F 40.2 °F 28.4 °F 53% 30.18 in 10.0 mi ESE 8.1 mph - N/A   Clear
12:55 AM 44.6 °F 39.2 °F 28.4 °F 53% 30.19 in 10.0 mi ESE 10.4 mph - N/A   Clear
1:15 AM 44.6 °F 39.2 °F 28.4 °F 53% 30.20 in 10.0 mi ESE 10.4 mph - N/A   Clear
1:35 AM 44.6 °F 39.7 °F 28.4 °F 53% 30.20 in 10.0 mi ESE 9.2 mph - N/A   Clear
1:55 AM 44.6 °F 39.7 °F 28.4 °F 53% 30.21 in 10.0 mi ESE 9.2 mph - N/A   Clear
2:15 AM 44.6 °F 39.7 °F 28.4 °F 53% 30.20 in 10.0 mi ESE 9.2 mph - N/A   Clear
2:35 AM 42.8 °F 37.5 °F 28.4 °F 57% 30.19 in 10.0 mi ESE 9.2 mph - N/A   Clear
2:55 AM 42.8 °F 38.6 °F 28.4 °F 57% 30.20 in 10.0 mi ESE 6.9 mph - N/A   Clear
3:15 AM 42.8 °F 37.5 °F 30.2 °F 61% 30.19 in 10.0 mi ESE 9.2 mph - N/A   Clear
3:35 AM 44.6 °F 39.7 °F 28.4 °F 53% 30.19 in 10.0 mi ESE 9.2 mph - N/A   Partly Cloudy
3:55 AM 42.8 °F 37.0 °F 28.4 °F 57% 30.19 in 10.0 mi ESE 10.4 mph - N/A   Clear
4:15 AM 42.8 °F 37.0 °F 28.4 °F 57% 30.19 in 10.0 mi ESE 10.4 mph - N/A   Clear
4:35 AM 42.8 °F 37.0 °F 28.4 °F 57% 30.20 in 10.0 mi ESE 10.4 mph - N/A   Clear
4:55 AM 42.8 °F 37.0 °F 30.2 °F 61% 30.20 in 10.0 mi ESE 10.4 mph - N/A   Clear
5:15 AM 44.6 °F 38.8 °F 28.4 °F 53% 30.22 in 10.0 mi ESE 11.5 mph - N/A   Clear
5:35 AM 44.6 °F 39.2 °F 28.4 °F 53% 30.22 in 10.0 mi ESE 10.4 mph - N/A   Clear
5:55 AM 44.6 °F 39.7 °F 30.2 °F 57% 30.22 in 10.0 mi ESE 9.2 mph - N/A   Clear
6:15 AM 42.8 °F 37.5 °F 28.4 °F 57% 30.22 in 10.0 mi SE 9.2 mph - N/A   Clear
6:35 AM 42.8 °F 37.5 °F 28.4 °F 57% 30.22 in 10.0 mi SE 9.2 mph - N/A   Clear
6:55 AM 42.8 °F 38.0 °F 30.2 °F 61% 30.22 in 10.0 mi SE 8.1 mph - N/A   Clear
7:15 AM 42.8 °F 37.5 °F 30.2 °F 61% 30.21 in 10.0 mi ESE 9.2 mph - N/A   Clear
7:35 AM 44.6 °F 40.2 °F 30.2 °F 57% 30.21 in 10.0 mi ESE 8.1 mph - N/A   Clear
7:55 AM 46.4 °F 40.4 °F 30.2 °F 53% 30.21 in 10.0 mi SE 13.8 mph - N/A   Clear
8:15 AM 46.4 °F 40.4 °F 30.2 °F 53% 30.22 in 10.0 mi SE 13.8 mph 18.4 mph N/A   Clear
8:35 AM 46.4 °F 41.9 °F 30.2 °F 53% 30.23 in 10.0 mi SSE 9.2 mph - N/A   Clear
8:55 AM 50.0 °F - 30.2 °F 47% 30.23 in 10.0 mi SSE 11.5 mph 17.3 mph N/A   Clear
9:15 AM 53.6 °F - 32.0 °F 44% 30.23 in 10.0 mi SSE 11.5 mph - N/A   Clear
9:35 AM 53.6 °F - 32.0 °F 44% 30.22 in 10.0 mi SE 11.5 mph - N/A   Clear
9:55 AM 55.4 °F - 33.8 °F 44% 30.22 in 10.0 mi SE 13.8 mph - N/A   Clear
10:15 AM 57.2 °F - 33.8 °F 41% 30.22 in 10.0 mi SE 11.5 mph - N/A   Clear
10:35 AM 57.2 °F - 33.8 °F 41% 30.22 in 10.0 mi South 8.1 mph - N/A   Clear
10:55 AM 60.8 °F - 33.8 °F 36% 30.22 in 10.0 mi South 12.7 mph 17.3 mph N/A   Clear
11:15 AM 60.8 °F - 33.8 °F 36% 30.22 in 10.0 mi South 13.8 mph 20.7 mph N/A   Clear
11:35 AM 60.8 °F - 35.6 °F 39% 30.21 in 10.0 mi South 11.5 mph - N/A   Clear
11:55 AM 60.8 °F - 35.6 °F 39% 30.22 in 10.0 mi SSW 13.8 mph 20.7 mph N/A   Clear
12:15 PM 62.6 °F - 35.6 °F 37% 30.21 in 10.0 mi South 15.0 mph 20.7 mph N/A   Clear
12:35 PM 62.6 °F - 35.6 °F 37% 30.20 in 10.0 mi SSE 11.5 mph 19.6 mph N/A   Mostly Cloudy
12:55 PM 60.8 °F - 35.6 °F 39% 30.18 in 10.0 mi South 12.7 mph 17.3 mph N/A   Overcast
1:15 PM 60.8 °F - 35.6 °F 39% 30.17 in 10.0 mi SSE 10.4 mph 19.6 mph N/A   Overcast
1:35 PM 62.6 °F - 35.6 °F 37% 30.15 in 10.0 mi SE 11.5 mph - N/A   Mostly Cloudy
1:55 PM 60.8 °F - 35.6 °F 39% 30.14 in 10.0 mi SSE 9.2 mph 16.1 mph N/A   Overcast
2:15 PM 60.8 °F - 35.6 °F 39% 30.13 in 10.0 mi South 12.7 mph - N/A   Overcast
2:35 PM 60.8 °F - 35.6 °F 39% 30.12 in 10.0 mi SSE 11.5 mph 16.1 mph N/A   Overcast
2:55 PM 60.8 °F - 35.6 °F 39% 30.11 in 10.0 mi SSE 12.7 mph - N/A   Overcast
3:15 PM 60.8 °F - 33.8 °F 36% 30.10 in 10.0 mi SSE 11.5 mph - N/A   Overcast
3:35 PM 60.8 °F - 33.8 °F 36% 30.09 in 10.0 mi SSE 11.5 mph - N/A   Overcast
3:55 PM 60.8 °F - 33.8 °F 36% 30.11 in 10.0 mi South 11.5 mph - N/A   Overcast
4:15 PM 59.0 °F - 33.8 °F 39% 30.09 in 10.0 mi SE 10.4 mph - N/A   Overcast
4:35 PM 59.0 °F - 33.8 °F 39% 30.07 in 10.0 mi ESE 11.5 mph - N/A   Overcast
4:55 PM 60.8 °F - 33.8 °F 36% 30.07 in 10.0 mi SE 10.4 mph - N/A   Mostly Cloudy
5:15 PM 59.0 °F - 33.8 °F 39% 30.08 in 10.0 mi SSE 11.5 mph - N/A   Mostly Cloudy
5:35 PM 59.0 °F - 32.0 °F 36% 30.08 in 10.0 mi SSE 12.7 mph - N/A   Overcast
5:55 PM 59.0 °F - 30.2 °F 34% 30.07 in 10.0 mi SE 15.0 mph - N/A   Overcast
6:15 PM 57.2 °F - 32.0 °F 38% 30.08 in 10.0 mi SE 8.1 mph - N/A   Mostly Cloudy
6:35 PM 57.2 °F - 32.0 °F 38% 30.09 in 10.0 mi SSE 8.1 mph - N/A   Mostly Cloudy
6:55 PM 57.2 °F - 32.0 °F 38% 30.09 in 10.0 mi SE 8.1 mph - N/A   Overcast
7:15 PM 57.2 °F - 32.0 °F 38% 30.09 in 10.0 mi SE 10.4 mph - N/A   Mostly Cloudy
7:35 PM 57.2 °F - 32.0 °F 38% 30.09 in 10.0 mi SE 11.5 mph - N/A   Overcast
7:55 PM 55.4 °F - 33.8 °F 44% 30.08 in 10.0 mi SE 11.5 mph - N/A   Overcast
8:15 PM 55.4 °F - 32.0 °F 41% 30.08 in 10.0 mi SE 12.7 mph 19.6 mph N/A   Overcast
8:35 PM 55.4 °F - 33.8 °F 44% 30.08 in 10.0 mi SE 13.8 mph 19.6 mph N/A   Overcast
8:55 PM 53.6 °F - 35.6 °F 51% 30.08 in 10.0 mi SE 15.0 mph 19.6 mph N/A   Overcast
9:15 PM 53.6 °F - 35.6 °F 51% 30.08 in 10.0 mi SSE 11.5 mph - N/A   Overcast
9:35 PM 53.6 °F - 35.6 °F 51% 30.08 in 10.0 mi SE 11.5 mph - N/A   Overcast
9:55 PM 55.4 °F - 33.8 °F 44% 30.08 in 10.0 mi SE 9.2 mph - N/A   Overcast
10:15 PM 55.4 °F - 33.8 °F 44% 30.07 in 10.0 mi SSE 10.4 mph - N/A   Overcast
10:35 PM 55.4 °F - 33.8 °F 44% 30.08 in 10.0 mi SSE 10.4 mph - N/A   Overcast
10:55 PM 55.4 °F - 33.8 °F 44% 30.07 in 10.0 mi SSE 11.5 mph - N/A   Overcast
11:15 PM 55.4 °F - 33.8 °F 44% 30.06 in 10.0 mi SSE 9.2 mph - N/A   Overcast
11:35 PM 53.6 °F - 33.8 °F 47% 30.05 in 10.0 mi SSE 9.2 mph - N/A   Overcast
11:55 PM 51.8 °F - 35.6 °F 54% 30.03 in 10.0 mi SE 10.4 mph - N/A   Overcast